sensor_id;sensor_type;location;lat;lon;timestamp;P1;durP1;ratioP1;P2;durP2;ratioP2
72156;SDS011;60035;52.122;5.406;2023-10-13T00:01:48;22.00;;;8.52;;
72156;SDS011;60035;52.122;5.406;2023-10-13T00:04:18;25.48;;;9.57;;
72156;SDS011;60035;52.122;5.406;2023-10-13T00:06:49;21.75;;;9.35;;
72156;SDS011;60035;52.122;5.406;2023-10-13T00:09:16;21.80;;;8.50;;
72156;SDS011;60035;52.122;5.406;2023-10-13T00:11:43;26.58;;;9.93;;
72156;SDS011;60035;52.122;5.406;2023-10-13T00:14:13;21.98;;;8.68;;
72156;SDS011;60035;52.122;5.406;2023-10-13T00:16:43;22.70;;;8.25;;
72156;SDS011;60035;52.122;5.406;2023-10-13T00:19:30;20.38;;;9.13;;
72156;SDS011;60035;52.122;5.406;2023-10-13T00:22:13;22.02;;;9.15;;
72156;SDS011;60035;52.122;5.406;2023-10-13T00:24:43;24.08;;;8.95;;
72156;SDS011;60035;52.122;5.406;2023-10-13T00:27:13;19.55;;;8.85;;
72156;SDS011;60035;52.122;5.406;2023-10-13T00:29:57;25.60;;;9.15;;
72156;SDS011;60035;52.122;5.406;2023-10-13T00:32:44;18.17;;;7.90;;
72156;SDS011;60035;52.122;5.406;2023-10-13T00:35:13;19.90;;;8.60;;
72156;SDS011;60035;52.122;5.406;2023-10-13T00:37:55;22.08;;;8.95;;
72156;SDS011;60035;52.122;5.406;2023-10-13T00:40:24;23.55;;;8.80;;
72156;SDS011;60035;52.122;5.406;2023-10-13T00:43:00;17.35;;;7.88;;
72156;SDS011;60035;52.122;5.406;2023-10-13T00:45:47;20.27;;;7.72;;
72156;SDS011;60035;52.122;5.406;2023-10-13T00:48:32;19.90;;;8.60;;
72156;SDS011;60035;52.122;5.406;2023-10-13T00:51:02;19.85;;;8.30;;
72156;SDS011;60035;52.122;5.406;2023-10-13T00:53:33;27.00;;;8.65;;
72156;SDS011;60035;52.122;5.406;2023-10-13T00:56:03;20.15;;;8.40;;
72156;SDS011;60035;52.122;5.406;2023-10-13T00:58:34;23.25;;;8.48;;
72156;SDS011;60035;52.122;5.406;2023-10-13T01:01:01;19.20;;;7.90;;
72156;SDS011;60035;52.122;5.406;2023-10-13T01:03:49;19.70;;;8.30;;
72156;SDS011;60035;52.122;5.406;2023-10-13T01:06:22;18.48;;;8.13;;
72156;SDS011;60035;52.122;5.406;2023-10-13T01:11:38;19.30;;;8.63;;
72156;SDS011;60035;52.122;5.406;2023-10-13T01:14:05;20.02;;;8.95;;
72156;SDS011;60035;52.122;5.406;2023-10-13T01:16:32;23.30;;;9.20;;
72156;SDS011;60035;52.122;5.406;2023-10-13T01:18:58;22.23;;;9.70;;
72156;SDS011;60035;52.122;5.406;2023-10-13T01:21:31;20.52;;;9.38;;
72156;SDS011;60035;52.122;5.406;2023-10-13T01:24:00;21.38;;;9.90;;
72156;SDS011;60035;52.122;5.406;2023-10-13T01:26:27;22.35;;;10.43;;
72156;SDS011;60035;52.122;5.406;2023-10-13T01:28:57;21.92;;;10.35;;
72156;SDS011;60035;52.122;5.406;2023-10-13T01:31:24;23.15;;;10.23;;
72156;SDS011;60035;52.122;5.406;2023-10-13T01:33:53;22.17;;;10.15;;
72156;SDS011;60035;52.122;5.406;2023-10-13T01:36:21;19.48;;;9.30;;
72156;SDS011;60035;52.122;5.406;2023-10-13T01:38:48;25.08;;;10.73;;
72156;SDS011;60035;52.122;5.406;2023-10-13T01:41:16;24.13;;;11.02;;
72156;SDS011;60035;52.122;5.406;2023-10-13T01:43:43;24.13;;;9.60;;
72156;SDS011;60035;52.122;5.406;2023-10-13T01:46:10;23.92;;;10.75;;
72156;SDS011;60035;52.122;5.406;2023-10-13T01:48:39;23.48;;;10.48;;
72156;SDS011;60035;52.122;5.406;2023-10-13T01:51:06;25.20;;;10.82;;
72156;SDS011;60035;52.122;5.406;2023-10-13T01:53:37;22.70;;;10.02;;
72156;SDS011;60035;52.122;5.406;2023-10-13T01:56:06;21.88;;;10.35;;
72156;SDS011;60035;52.122;5.406;2023-10-13T01:58:40;19.50;;;9.60;;
72156;SDS011;60035;52.122;5.406;2023-10-13T02:01:14;20.80;;;9.85;;
72156;SDS011;60035;52.122;5.406;2023-10-13T02:03:53;17.50;;;9.23;;
72156;SDS011;60035;52.122;5.406;2023-10-13T02:06:31;19.77;;;9.45;;
72156;SDS011;60035;52.122;5.406;2023-10-13T02:08:59;20.85;;;9.35;;
72156;SDS011;60035;52.122;5.406;2023-10-13T02:11:37;23.05;;;9.63;;
72156;SDS011;60035;52.122;5.406;2023-10-13T02:14:05;20.55;;;8.88;;
72156;SDS011;60035;52.122;5.406;2023-10-13T02:16:31;24.08;;;9.32;;
72156;SDS011;60035;52.122;5.406;2023-10-13T02:18:58;19.90;;;8.65;;
72156;SDS011;60035;52.122;5.406;2023-10-13T02:21:33;21.58;;;8.90;;
72156;SDS011;60035;52.122;5.406;2023-10-13T02:24:08;21.75;;;9.32;;
72156;SDS011;60035;52.122;5.406;2023-10-13T02:26:40;18.73;;;9.05;;
72156;SDS011;60035;52.122;5.406;2023-10-13T02:29:07;17.13;;;8.73;;
72156;SDS011;60035;52.122;5.406;2023-10-13T02:31:37;23.45;;;9.10;;
72156;SDS011;60035;52.122;5.406;2023-10-13T02:34:06;18.20;;;9.18;;
72156;SDS011;60035;52.122;5.406;2023-10-13T02:36:38;17.02;;;8.60;;
72156;SDS011;60035;52.122;5.406;2023-10-13T02:39:15;19.40;;;8.18;;
72156;SDS011;60035;52.122;5.406;2023-10-13T02:41:42;16.35;;;7.78;;
72156;SDS011;60035;52.122;5.406;2023-10-13T02:44:14;16.42;;;8.02;;
72156;SDS011;60035;52.122;5.406;2023-10-13T02:46:53;18.65;;;8.20;;
72156;SDS011;60035;52.122;5.406;2023-10-13T02:49:23;18.63;;;8.18;;
72156;SDS011;60035;52.122;5.406;2023-10-13T02:51:53;16.95;;;8.45;;
72156;SDS011;60035;52.122;5.406;2023-10-13T02:54:26;16.58;;;7.43;;
72156;SDS011;60035;52.122;5.406;2023-10-13T02:57:05;17.08;;;7.78;;
72156;SDS011;60035;52.122;5.406;2023-10-13T02:59:32;19.27;;;8.18;;
72156;SDS011;60035;52.122;5.406;2023-10-13T03:02:15;21.90;;;8.05;;
72156;SDS011;60035;52.122;5.406;2023-10-13T03:04:48;19.92;;;8.15;;
72156;SDS011;60035;52.122;5.406;2023-10-13T03:07:15;17.67;;;7.72;;
72156;SDS011;60035;52.122;5.406;2023-10-13T03:09:51;21.02;;;7.07;;
72156;SDS011;60035;52.122;5.406;2023-10-13T03:12:18;15.48;;;7.20;;
72156;SDS011;60035;52.122;5.406;2023-10-13T03:14:46;17.85;;;8.50;;
72156;SDS011;60035;52.122;5.406;2023-10-13T03:17:15;21.45;;;7.20;;
72156;SDS011;60035;52.122;5.406;2023-10-13T03:19:44;17.70;;;7.13;;
72156;SDS011;60035;52.122;5.406;2023-10-13T03:22:18;17.63;;;7.65;;
72156;SDS011;60035;52.122;5.406;2023-10-13T03:24:45;13.88;;;6.20;;
72156;SDS011;60035;52.122;5.406;2023-10-13T03:27:13;18.52;;;6.72;;
72156;SDS011;60035;52.122;5.406;2023-10-13T03:29:45;16.42;;;7.90;;
72156;SDS011;60035;52.122;5.406;2023-10-13T03:32:20;19.25;;;6.90;;
72156;SDS011;60035;52.122;5.406;2023-10-13T03:34:47;17.70;;;7.15;;
72156;SDS011;60035;52.122;5.406;2023-10-13T03:37:21;19.02;;;7.30;;
72156;SDS011;60035;52.122;5.406;2023-10-13T03:42:46;14.27;;;7.00;;
72156;SDS011;60035;52.122;5.406;2023-10-13T03:45:32;17.33;;;6.82;;
72156;SDS011;60035;52.122;5.406;2023-10-13T03:48:13;16.20;;;6.88;;
72156;SDS011;60035;52.122;5.406;2023-10-13T03:50:53;15.02;;;6.68;;
72156;SDS011;60035;52.122;5.406;2023-10-13T03:53:30;15.13;;;6.03;;
72156;SDS011;60035;52.122;5.406;2023-10-13T03:56:03;12.50;;;6.22;;
72156;SDS011;60035;52.122;5.406;2023-10-13T03:58:57;15.90;;;6.45;;
72156;SDS011;60035;52.122;5.406;2023-10-13T04:01:30;12.88;;;5.85;;
72156;SDS011;60035;52.122;5.406;2023-10-13T04:04:13;15.13;;;6.82;;
72156;SDS011;60035;52.122;5.406;2023-10-13T04:06:57;14.55;;;6.00;;
72156;SDS011;60035;52.122;5.406;2023-10-13T04:09:36;15.75;;;6.68;;
72156;SDS011;60035;52.122;5.406;2023-10-13T04:12:13;14.43;;;5.88;;
72156;SDS011;60035;52.122;5.406;2023-10-13T04:14:40;15.57;;;6.18;;
72156;SDS011;60035;52.122;5.406;2023-10-13T04:17:29;13.90;;;6.40;;
72156;SDS011;60035;52.122;5.406;2023-10-13T04:20:00;15.68;;;6.78;;
72156;SDS011;60035;52.122;5.406;2023-10-13T04:25:26;16.10;;;6.93;;
72156;SDS011;60035;52.122;5.406;2023-10-13T04:28:10;14.07;;;5.38;;
72156;SDS011;60035;52.122;5.406;2023-10-13T04:30:42;15.70;;;6.80;;
72156;SDS011;60035;52.122;5.406;2023-10-13T04:33:22;15.20;;;5.78;;
72156;SDS011;60035;52.122;5.406;2023-10-13T04:36:05;13.68;;;5.28;;
72156;SDS011;60035;52.122;5.406;2023-10-13T04:38:58;13.77;;;6.38;;
72156;SDS011;60035;52.122;5.406;2023-10-13T04:44:12;13.80;;;5.20;;
72156;SDS011;60035;52.122;5.406;2023-10-13T04:46:56;13.20;;;5.22;;
72156;SDS011;60035;52.122;5.406;2023-10-13T04:49:28;13.82;;;6.05;;
72156;SDS011;60035;52.122;5.406;2023-10-13T04:52:17;12.93;;;5.50;;
72156;SDS011;60035;52.122;5.406;2023-10-13T04:55:05;12.45;;;4.50;;
72156;SDS011;60035;52.122;5.406;2023-10-13T04:58:04;12.93;;;5.03;;
72156;SDS011;60035;52.122;5.406;2023-10-13T05:00:40;10.63;;;4.30;;
72156;SDS011;60035;52.122;5.406;2023-10-13T05:03:43;11.05;;;4.72;;
72156;SDS011;60035;52.122;5.406;2023-10-13T05:06:28;10.30;;;4.28;;
72156;SDS011;60035;52.122;5.406;2023-10-13T05:09:10;10.57;;;4.20;;
72156;SDS011;60035;52.122;5.406;2023-10-13T05:11:57;10.55;;;4.35;;
72156;SDS011;60035;52.122;5.406;2023-10-13T05:14:42;10.75;;;4.25;;
72156;SDS011;60035;52.122;5.406;2023-10-13T05:17:27;11.32;;;5.30;;
72156;SDS011;60035;52.122;5.406;2023-10-13T05:20:13;13.30;;;5.80;;
72156;SDS011;60035;52.122;5.406;2023-10-13T05:22:58;11.73;;;5.03;;
72156;SDS011;60035;52.122;5.406;2023-10-13T05:25:43;13.23;;;6.22;;
72156;SDS011;60035;52.122;5.406;2023-10-13T05:28:28;13.38;;;5.78;;
72156;SDS011;60035;52.122;5.406;2023-10-13T05:31:13;15.55;;;5.82;;
72156;SDS011;60035;52.122;5.406;2023-10-13T05:33:58;14.98;;;5.75;;
72156;SDS011;60035;52.122;5.406;2023-10-13T05:36:43;12.40;;;6.07;;
72156;SDS011;60035;52.122;5.406;2023-10-13T05:39:28;14.98;;;6.75;;
72156;SDS011;60035;52.122;5.406;2023-10-13T05:42:13;12.00;;;4.93;;
72156;SDS011;60035;52.122;5.406;2023-10-13T05:44:58;11.13;;;5.60;;
72156;SDS011;60035;52.122;5.406;2023-10-13T05:47:43;17.40;;;5.68;;
72156;SDS011;60035;52.122;5.406;2023-10-13T05:50:10;12.13;;;4.63;;
72156;SDS011;60035;52.122;5.406;2023-10-13T05:52:48;14.20;;;4.45;;
72156;SDS011;60035;52.122;5.406;2023-10-13T05:58:09;13.88;;;4.45;;
72156;SDS011;60035;52.122;5.406;2023-10-13T06:00:55;12.65;;;4.45;;
72156;SDS011;60035;52.122;5.406;2023-10-13T06:03:40;13.15;;;4.30;;
72156;SDS011;60035;52.122;5.406;2023-10-13T06:06:26;13.10;;;4.70;;
72156;SDS011;60035;52.122;5.406;2023-10-13T06:09:11;16.20;;;4.38;;
72156;SDS011;60035;52.122;5.406;2023-10-13T06:11:56;12.35;;;4.38;;
72156;SDS011;60035;52.122;5.406;2023-10-13T06:14:45;11.93;;;4.93;;
72156;SDS011;60035;52.122;5.406;2023-10-13T06:17:30;13.13;;;4.45;;
72156;SDS011;60035;52.122;5.406;2023-10-13T06:20:17;13.05;;;4.88;;
72156;SDS011;60035;52.122;5.406;2023-10-13T06:23:07;13.70;;;5.35;;
72156;SDS011;60035;52.122;5.406;2023-10-13T06:25:52;15.80;;;5.05;;
72156;SDS011;60035;52.122;5.406;2023-10-13T06:28:38;11.68;;;5.15;;
72156;SDS011;60035;52.122;5.406;2023-10-13T06:31:09;16.55;;;5.45;;
72156;SDS011;60035;52.122;5.406;2023-10-13T06:33:48;12.88;;;5.00;;
72156;SDS011;60035;52.122;5.406;2023-10-13T06:36:14;12.70;;;5.53;;
72156;SDS011;60035;52.122;5.406;2023-10-13T06:38:44;14.00;;;5.03;;
72156;SDS011;60035;52.122;5.406;2023-10-13T06:41:10;13.38;;;4.53;;
72156;SDS011;60035;52.122;5.406;2023-10-13T06:43:46;11.13;;;5.30;;
72156;SDS011;60035;52.122;5.406;2023-10-13T06:46:26;9.27;;;4.75;;
72156;SDS011;60035;52.122;5.406;2023-10-13T06:48:55;13.80;;;5.22;;
72156;SDS011;60035;52.122;5.406;2023-10-13T06:51:21;13.35;;;6.35;;
72156;SDS011;60035;52.122;5.406;2023-10-13T06:53:51;12.57;;;6.03;;
72156;SDS011;60035;52.122;5.406;2023-10-13T06:56:22;14.27;;;5.75;;
72156;SDS011;60035;52.122;5.406;2023-10-13T06:58:55;15.35;;;6.47;;
72156;SDS011;60035;52.122;5.406;2023-10-13T07:01:26;16.25;;;5.95;;
72156;SDS011;60035;52.122;5.406;2023-10-13T07:03:53;15.32;;;6.45;;
72156;SDS011;60035;52.122;5.406;2023-10-13T07:06:20;17.60;;;7.85;;
72156;SDS011;60035;52.122;5.406;2023-10-13T07:08:47;13.20;;;7.30;;
72156;SDS011;60035;52.122;5.406;2023-10-13T07:11:24;16.08;;;7.97;;
72156;SDS011;60035;52.122;5.406;2023-10-13T07:14:04;15.05;;;7.07;;
72156;SDS011;60035;52.122;5.406;2023-10-13T07:16:42;15.85;;;7.90;;
72156;SDS011;60035;52.122;5.406;2023-10-13T07:19:13;15.48;;;7.50;;
72156;SDS011;60035;52.122;5.406;2023-10-13T07:21:45;14.75;;;6.82;;
72156;SDS011;60035;52.122;5.406;2023-10-13T07:24:12;14.25;;;7.40;;
72156;SDS011;60035;52.122;5.406;2023-10-13T07:26:40;14.13;;;6.97;;
72156;SDS011;60035;52.122;5.406;2023-10-13T07:29:10;13.90;;;7.32;;
72156;SDS011;60035;52.122;5.406;2023-10-13T07:31:36;16.42;;;7.78;;
72156;SDS011;60035;52.122;5.406;2023-10-13T07:34:08;15.07;;;7.57;;
72156;SDS011;60035;52.122;5.406;2023-10-13T07:37:04;15.05;;;6.47;;
72156;SDS011;60035;52.122;5.406;2023-10-13T07:39:34;16.48;;;5.93;;
72156;SDS011;60035;52.122;5.406;2023-10-13T07:42:02;15.73;;;5.97;;
72156;SDS011;60035;52.122;5.406;2023-10-13T07:44:41;13.43;;;5.57;;
72156;SDS011;60035;52.122;5.406;2023-10-13T07:47:13;11.27;;;5.72;;
72156;SDS011;60035;52.122;5.406;2023-10-13T07:49:40;13.43;;;4.97;;
72156;SDS011;60035;52.122;5.406;2023-10-13T07:52:11;12.95;;;5.47;;
72156;SDS011;60035;52.122;5.406;2023-10-13T07:54:54;11.18;;;5.10;;
72156;SDS011;60035;52.122;5.406;2023-10-13T07:57:40;12.85;;;5.32;;
72156;SDS011;60035;52.122;5.406;2023-10-13T08:00:20;14.80;;;4.97;;
72156;SDS011;60035;52.122;5.406;2023-10-13T08:03:07;16.05;;;4.90;;
72156;SDS011;60035;52.122;5.406;2023-10-13T08:05:43;13.98;;;5.57;;
72156;SDS011;60035;52.122;5.406;2023-10-13T08:08:26;11.50;;;4.13;;
72156;SDS011;60035;52.122;5.406;2023-10-13T08:10:53;12.48;;;4.60;;
72156;SDS011;60035;52.122;5.406;2023-10-13T08:13:22;13.48;;;4.30;;
72156;SDS011;60035;52.122;5.406;2023-10-13T08:15:49;14.32;;;5.35;;
72156;SDS011;60035;52.122;5.406;2023-10-13T08:21:02;12.65;;;4.55;;
72156;SDS011;60035;52.122;5.406;2023-10-13T08:23:30;12.70;;;5.05;;
72156;SDS011;60035;52.122;5.406;2023-10-13T08:26:16;11.25;;;4.53;;
72156;SDS011;60035;52.122;5.406;2023-10-13T08:31:51;13.45;;;4.78;;
72156;SDS011;60035;52.122;5.406;2023-10-13T08:34:31;12.52;;;4.68;;
72156;SDS011;60035;52.122;5.406;2023-10-13T08:37:10;16.08;;;5.07;;
72156;SDS011;60035;52.122;5.406;2023-10-13T08:39:49;11.85;;;4.63;;
72156;SDS011;60035;52.122;5.406;2023-10-13T08:42:52;13.35;;;4.45;;
72156;SDS011;60035;52.122;5.406;2023-10-13T08:45:31;12.95;;;4.10;;
72156;SDS011;60035;52.122;5.406;2023-10-13T08:48:02;14.75;;;4.40;;
72156;SDS011;60035;52.122;5.406;2023-10-13T08:50:50;15.90;;;5.88;;
72156;SDS011;60035;52.122;5.406;2023-10-13T08:53:24;14.15;;;4.35;;
72156;SDS011;60035;52.122;5.406;2023-10-13T08:56:02;11.85;;;4.88;;
72156;SDS011;60035;52.122;5.406;2023-10-13T08:58:38;15.68;;;5.57;;
72156;SDS011;60035;52.122;5.406;2023-10-13T09:01:25;14.90;;;4.47;;
72156;SDS011;60035;52.122;5.406;2023-10-13T09:04:13;15.35;;;4.20;;
72156;SDS011;60035;52.122;5.406;2023-10-13T09:06:54;10.93;;;4.38;;
72156;SDS011;60035;52.122;5.406;2023-10-13T09:09:31;16.33;;;4.50;;
72156;SDS011;60035;52.122;5.406;2023-10-13T09:12:13;17.10;;;5.25;;
72156;SDS011;60035;52.122;5.406;2023-10-13T09:14:42;13.43;;;4.78;;
72156;SDS011;60035;52.122;5.406;2023-10-13T09:17:23;15.48;;;4.38;;
72156;SDS011;60035;52.122;5.406;2023-10-13T09:20:01;16.60;;;4.63;;
72156;SDS011;60035;52.122;5.406;2023-10-13T09:22:52;15.65;;;4.88;;
72156;SDS011;60035;52.122;5.406;2023-10-13T09:25:29;15.23;;;4.60;;
72156;SDS011;60035;52.122;5.406;2023-10-13T09:28:04;18.02;;;5.53;;
72156;SDS011;60035;52.122;5.406;2023-10-13T09:33:19;13.80;;;3.85;;
72156;SDS011;60035;52.122;5.406;2023-10-13T09:35:54;14.63;;;3.67;;
72156;SDS011;60035;52.122;5.406;2023-10-13T09:38:28;11.23;;;3.58;;
72156;SDS011;60035;52.122;5.406;2023-10-13T09:40:55;12.50;;;4.45;;
72156;SDS011;60035;52.122;5.406;2023-10-13T09:43:24;14.13;;;4.68;;
72156;SDS011;60035;52.122;5.406;2023-10-13T09:45:55;11.50;;;4.65;;
72156;SDS011;60035;52.122;5.406;2023-10-13T09:48:44;15.20;;;4.60;;
72156;SDS011;60035;52.122;5.406;2023-10-13T09:51:13;15.05;;;5.25;;
72156;SDS011;60035;52.122;5.406;2023-10-13T09:53:52;14.40;;;4.80;;
72156;SDS011;60035;52.122;5.406;2023-10-13T09:56:54;14.02;;;5.22;;
72156;SDS011;60035;52.122;5.406;2023-10-13T09:59:35;14.77;;;4.72;;
72156;SDS011;60035;52.122;5.406;2023-10-13T10:02:15;18.52;;;5.78;;
72156;SDS011;60035;52.122;5.406;2023-10-13T10:07:28;17.40;;;5.60;;
72156;SDS011;60035;52.122;5.406;2023-10-13T10:09:56;18.50;;;5.30;;
72156;SDS011;60035;52.122;5.406;2023-10-13T10:13:28;14.57;;;4.55;;
72156;SDS011;60035;52.122;5.406;2023-10-13T10:18:02;12.25;;;4.88;;
72156;SDS011;60035;52.122;5.406;2023-10-13T10:20:34;17.77;;;5.43;;
72156;SDS011;60035;52.122;5.406;2023-10-13T10:23:08;14.35;;;4.65;;
72156;SDS011;60035;52.122;5.406;2023-10-13T10:25:48;12.98;;;5.15;;
72156;SDS011;60035;52.122;5.406;2023-10-13T10:28:18;14.23;;;4.57;;
72156;SDS011;60035;52.122;5.406;2023-10-13T10:30:46;12.20;;;4.82;;
72156;SDS011;60035;52.122;5.406;2023-10-13T10:33:14;14.80;;;4.95;;
72156;SDS011;60035;52.122;5.406;2023-10-13T10:35:45;13.05;;;4.85;;
72156;SDS011;60035;52.122;5.406;2023-10-13T10:38:16;20.13;;;5.22;;
72156;SDS011;60035;52.122;5.406;2023-10-13T10:41:05;13.68;;;4.93;;
72156;SDS011;60035;52.122;5.406;2023-10-13T10:48:41;14.77;;;4.32;;
72156;SDS011;60035;52.122;5.406;2023-10-13T10:51:11;15.85;;;5.40;;
72156;SDS011;60035;52.122;5.406;2023-10-13T10:53:53;14.68;;;4.80;;
72156;SDS011;60035;52.122;5.406;2023-10-13T10:56:23;15.55;;;5.57;;
72156;SDS011;60035;52.122;5.406;2023-10-13T10:58:55;12.82;;;4.60;;
72156;SDS011;60035;52.122;5.406;2023-10-13T11:01:23;13.98;;;4.80;;
72156;SDS011;60035;52.122;5.406;2023-10-13T11:06:24;12.20;;;4.90;;
72156;SDS011;60035;52.122;5.406;2023-10-13T11:09:05;12.38;;;5.30;;
72156;SDS011;60035;52.122;5.406;2023-10-13T11:14:27;12.65;;;4.90;;
72156;SDS011;60035;52.122;5.406;2023-10-13T11:16:56;18.45;;;6.55;;
72156;SDS011;60035;52.122;5.406;2023-10-13T11:19:45;15.88;;;5.05;;
72156;SDS011;60035;52.122;5.406;2023-10-13T11:24:55;13.57;;;5.15;;
72156;SDS011;60035;52.122;5.406;2023-10-13T11:27:32;21.13;;;6.10;;
72156;SDS011;60035;52.122;5.406;2023-10-13T11:30:11;16.38;;;4.25;;
72156;SDS011;60035;52.122;5.406;2023-10-13T11:32:56;17.00;;;5.30;;
72156;SDS011;60035;52.122;5.406;2023-10-13T11:35:24;20.08;;;5.28;;
72156;SDS011;60035;52.122;5.406;2023-10-13T11:37:50;17.05;;;4.28;;
72156;SDS011;60035;52.122;5.406;2023-10-13T11:40:29;15.98;;;4.47;;
72156;SDS011;60035;52.122;5.406;2023-10-13T11:43:17;12.10;;;4.20;;
72156;SDS011;60035;52.122;5.406;2023-10-13T11:45:48;17.58;;;4.50;;
72156;SDS011;60035;52.122;5.406;2023-10-13T11:48:44;17.23;;;4.65;;
72156;SDS011;60035;52.122;5.406;2023-10-13T11:51:13;15.15;;;4.93;;
72156;SDS011;60035;52.122;5.406;2023-10-13T11:53:44;15.18;;;5.28;;
72156;SDS011;60035;52.122;5.406;2023-10-13T11:56:21;16.52;;;5.00;;
72156;SDS011;60035;52.122;5.406;2023-10-13T11:58:47;15.40;;;5.63;;
72156;SDS011;60035;52.122;5.406;2023-10-13T12:01:15;13.55;;;4.50;;
72156;SDS011;60035;52.122;5.406;2023-10-13T12:03:45;16.70;;;4.88;;
72156;SDS011;60035;52.122;5.406;2023-10-13T12:06:33;16.35;;;4.68;;
72156;SDS011;60035;52.122;5.406;2023-10-13T12:09:05;18.35;;;4.57;;
72156;SDS011;60035;52.122;5.406;2023-10-13T12:11:47;14.85;;;4.68;;
72156;SDS011;60035;52.122;5.406;2023-10-13T12:14:17;14.57;;;4.72;;
72156;SDS011;60035;52.122;5.406;2023-10-13T12:17:16;18.45;;;4.45;;
72156;SDS011;60035;52.122;5.406;2023-10-13T12:19:51;14.75;;;4.93;;
72156;SDS011;60035;52.122;5.406;2023-10-13T12:22:18;15.02;;;5.28;;
72156;SDS011;60035;52.122;5.406;2023-10-13T12:24:56;15.20;;;4.85;;
72156;SDS011;60035;52.122;5.406;2023-10-13T12:27:23;18.27;;;5.03;;
72156;SDS011;60035;52.122;5.406;2023-10-13T12:29:50;16.08;;;5.15;;
72156;SDS011;60035;52.122;5.406;2023-10-13T12:32:22;15.60;;;5.50;;
72156;SDS011;60035;52.122;5.406;2023-10-13T12:34:51;14.32;;;4.88;;
72156;SDS011;60035;52.122;5.406;2023-10-13T12:37:31;15.23;;;4.38;;
72156;SDS011;60035;52.122;5.406;2023-10-13T12:40:16;16.23;;;4.95;;
72156;SDS011;60035;52.122;5.406;2023-10-13T12:43:03;14.50;;;4.63;;
72156;SDS011;60035;52.122;5.406;2023-10-13T12:45:49;15.25;;;4.75;;
72156;SDS011;60035;52.122;5.406;2023-10-13T12:48:36;15.05;;;5.22;;
72156;SDS011;60035;52.122;5.406;2023-10-13T12:51:21;15.07;;;5.03;;
72156;SDS011;60035;52.122;5.406;2023-10-13T12:53:55;18.42;;;5.40;;
72156;SDS011;60035;52.122;5.406;2023-10-13T12:56:30;17.02;;;4.65;;
72156;SDS011;60035;52.122;5.406;2023-10-13T12:58:57;13.68;;;5.13;;
72156;SDS011;60035;52.122;5.406;2023-10-13T13:01:24;15.82;;;5.53;;
72156;SDS011;60035;52.122;5.406;2023-10-13T13:03:59;16.63;;;4.93;;
72156;SDS011;60035;52.122;5.406;2023-10-13T13:06:29;13.18;;;4.43;;
72156;SDS011;60035;52.122;5.406;2023-10-13T13:08:57;14.77;;;4.78;;
72156;SDS011;60035;52.122;5.406;2023-10-13T13:11:25;16.92;;;5.13;;
72156;SDS011;60035;52.122;5.406;2023-10-13T13:13:52;18.77;;;5.15;;
72156;SDS011;60035;52.122;5.406;2023-10-13T13:16:19;16.77;;;4.82;;
72156;SDS011;60035;52.122;5.406;2023-10-13T13:18:50;15.15;;;4.63;;
72156;SDS011;60035;52.122;5.406;2023-10-13T13:21:17;17.10;;;5.45;;
72156;SDS011;60035;52.122;5.406;2023-10-13T13:23:49;15.52;;;5.15;;
72156;SDS011;60035;52.122;5.406;2023-10-13T13:26:17;15.55;;;5.25;;
72156;SDS011;60035;52.122;5.406;2023-10-13T13:28:44;14.75;;;4.78;;
72156;SDS011;60035;52.122;5.406;2023-10-13T13:31:11;19.33;;;5.03;;
72156;SDS011;60035;52.122;5.406;2023-10-13T13:33:41;15.85;;;5.22;;
72156;SDS011;60035;52.122;5.406;2023-10-13T13:36:10;17.30;;;5.40;;
72156;SDS011;60035;52.122;5.406;2023-10-13T13:38:43;18.02;;;5.47;;
72156;SDS011;60035;52.122;5.406;2023-10-13T13:41:15;18.90;;;5.55;;
72156;SDS011;60035;52.122;5.406;2023-10-13T13:43:46;16.38;;;5.28;;
72156;SDS011;60035;52.122;5.406;2023-10-13T13:46:22;17.52;;;5.45;;
72156;SDS011;60035;52.122;5.406;2023-10-13T13:49:00;19.63;;;5.93;;
72156;SDS011;60035;52.122;5.406;2023-10-13T13:51:33;15.52;;;4.97;;
72156;SDS011;60035;52.122;5.406;2023-10-13T13:54:00;17.40;;;5.38;;
72156;SDS011;60035;52.122;5.406;2023-10-13T13:56:30;15.85;;;4.95;;
72156;SDS011;60035;52.122;5.406;2023-10-13T13:58:57;13.57;;;5.40;;
72156;SDS011;60035;52.122;5.406;2023-10-13T14:01:25;17.55;;;5.05;;
72156;SDS011;60035;52.122;5.406;2023-10-13T14:03:52;20.65;;;5.10;;
72156;SDS011;60035;52.122;5.406;2023-10-13T14:06:24;15.38;;;4.85;;
72156;SDS011;60035;52.122;5.406;2023-10-13T14:08:51;15.55;;;4.85;;
72156;SDS011;60035;52.122;5.406;2023-10-13T14:11:26;12.90;;;5.07;;
72156;SDS011;60035;52.122;5.406;2023-10-13T14:16:39;15.02;;;5.30;;
72156;SDS011;60035;52.122;5.406;2023-10-13T14:19:14;14.73;;;4.80;;
72156;SDS011;60035;52.122;5.406;2023-10-13T14:21:46;16.80;;;5.28;;
72156;SDS011;60035;52.122;5.406;2023-10-13T14:24:20;14.18;;;4.70;;
72156;SDS011;60035;52.122;5.406;2023-10-13T14:26:56;18.88;;;4.70;;
72156;SDS011;60035;52.122;5.406;2023-10-13T14:29:35;15.75;;;5.20;;
72156;SDS011;60035;52.122;5.406;2023-10-13T14:32:07;10.77;;;3.80;;
72156;SDS011;60035;52.122;5.406;2023-10-13T14:34:42;8.25;;;2.90;;
72156;SDS011;60035;52.122;5.406;2023-10-13T14:37:10;9.68;;;2.90;;
72156;SDS011;60035;52.122;5.406;2023-10-13T14:39:39;9.70;;;3.20;;
72156;SDS011;60035;52.122;5.406;2023-10-13T14:42:06;10.07;;;3.53;;
72156;SDS011;60035;52.122;5.406;2023-10-13T14:44:33;9.35;;;2.67;;
72156;SDS011;60035;52.122;5.406;2023-10-13T14:47:01;12.65;;;3.33;;
72156;SDS011;60035;52.122;5.406;2023-10-13T14:49:28;15.35;;;4.47;;
72156;SDS011;60035;52.122;5.406;2023-10-13T14:51:55;13.23;;;5.00;;
72156;SDS011;60035;52.122;5.406;2023-10-13T14:54:21;13.43;;;4.50;;
72156;SDS011;60035;52.122;5.406;2023-10-13T14:56:59;15.82;;;5.07;;
72156;SDS011;60035;52.122;5.406;2023-10-13T14:59:27;12.38;;;3.72;;
72156;SDS011;60035;52.122;5.406;2023-10-13T15:01:54;19.80;;;4.72;;
72156;SDS011;60035;52.122;5.406;2023-10-13T15:04:21;14.15;;;5.20;;
72156;SDS011;60035;52.122;5.406;2023-10-13T15:06:51;13.20;;;4.53;;
72156;SDS011;60035;52.122;5.406;2023-10-13T15:09:17;12.88;;;4.15;;
72156;SDS011;60035;52.122;5.406;2023-10-13T15:11:49;15.10;;;4.68;;
72156;SDS011;60035;52.122;5.406;2023-10-13T15:14:19;14.27;;;4.53;;
72156;SDS011;60035;52.122;5.406;2023-10-13T15:16:47;11.40;;;4.40;;
72156;SDS011;60035;52.122;5.406;2023-10-13T15:19:14;17.50;;;4.70;;
72156;SDS011;60035;52.122;5.406;2023-10-13T15:21:42;10.82;;;4.18;;
72156;SDS011;60035;52.122;5.406;2023-10-13T15:24:15;11.52;;;3.95;;
72156;SDS011;60035;52.122;5.406;2023-10-13T15:26:52;12.40;;;4.38;;
72156;SDS011;60035;52.122;5.406;2023-10-13T15:29:23;14.05;;;4.32;;
72156;SDS011;60035;52.122;5.406;2023-10-13T15:31:56;16.65;;;5.45;;
72156;SDS011;60035;52.122;5.406;2023-10-13T15:34:27;17.73;;;4.80;;
72156;SDS011;60035;52.122;5.406;2023-10-13T15:36:54;18.23;;;4.63;;
72156;SDS011;60035;52.122;5.406;2023-10-13T15:39:23;16.33;;;4.95;;
72156;SDS011;60035;52.122;5.406;2023-10-13T15:41:51;15.27;;;4.50;;
72156;SDS011;60035;52.122;5.406;2023-10-13T15:44:20;14.88;;;4.72;;
72156;SDS011;60035;52.122;5.406;2023-10-13T15:46:54;16.38;;;5.18;;
72156;SDS011;60035;52.122;5.406;2023-10-13T15:49:24;15.65;;;4.85;;
72156;SDS011;60035;52.122;5.406;2023-10-13T15:51:54;14.95;;;4.55;;
72156;SDS011;60035;52.122;5.406;2023-10-13T15:54:23;14.15;;;5.28;;
72156;SDS011;60035;52.122;5.406;2023-10-13T15:56:50;16.25;;;4.97;;
72156;SDS011;60035;52.122;5.406;2023-10-13T15:59:17;13.80;;;5.50;;
72156;SDS011;60035;52.122;5.406;2023-10-13T16:01:44;14.80;;;5.15;;